sensor_id;sensor_type;location;lat;lon;timestamp;pressure;altitude;pressure_sealevel;temperature;humidity
48563;BME280;34981;49.104;11.396;2023-09-07T00:01:20;95426.16;;;17.35;100.00
48563;BME280;34981;49.104;11.396;2023-09-07T00:03:47;95422.16;;;17.32;100.00
48563;BME280;34981;49.104;11.396;2023-09-07T00:06:14;95414.34;;;17.31;100.00
48563;BME280;34981;49.104;11.396;2023-09-07T00:08:41;95407.31;;;17.30;100.00
48563;BME280;34981;49.104;11.396;2023-09-07T00:11:09;95394.06;;;17.28;100.00
48563;BME280;34981;49.104;11.396;2023-09-07T00:13:38;95385.75;;;17.25;100.00
48563;BME280;34981;49.104;11.396;2023-09-07T00:16:06;95380.66;;;17.23;100.00
48563;BME280;34981;49.104;11.396;2023-09-07T00:18:33;95386.91;;;17.24;100.00
48563;BME280;34981;49.104;11.396;2023-09-07T00:21:01;95397.75;;;17.24;100.00
48563;BME280;34981;49.104;11.396;2023-09-07T00:23:28;95404.75;;;17.25;100.00
48563;BME280;34981;49.104;11.396;2023-09-07T00:25:55;95400.81;;;17.22;100.00
48563;BME280;34981;49.104;11.396;2023-09-07T00:28:22;95403.03;;;17.20;100.00
48563;BME280;34981;49.104;11.396;2023-09-07T00:30:50;95406.72;;;17.16;100.00
48563;BME280;34981;49.104;11.396;2023-09-07T00:33:17;95417.75;;;17.10;100.00
48563;BME280;34981;49.104;11.396;2023-09-07T00:35:44;95418.41;;;17.07;100.00
48563;BME280;34981;49.104;11.396;2023-09-07T00:38:11;95421.59;;;17.09;100.00
48563;BME280;34981;49.104;11.396;2023-09-07T00:40:42;95428.16;;;17.08;100.00
48563;BME280;34981;49.104;11.396;2023-09-07T00:43:09;95419.06;;;17.04;100.00
48563;BME280;34981;49.104;11.396;2023-09-07T00:45:37;95417.44;;;17.03;100.00
48563;BME280;34981;49.104;11.396;2023-09-07T00:48:05;95423.06;;;16.98;100.00
48563;BME280;34981;49.104;11.396;2023-09-07T00:50:32;95421.63;;;17.01;100.00
48563;BME280;34981;49.104;11.396;2023-09-07T00:52:59;95426.72;;;17.02;100.00
48563;BME280;34981;49.104;11.396;2023-09-07T00:55:27;95422.25;;;16.98;100.00
48563;BME280;34981;49.104;11.396;2023-09-07T00:57:54;95420.84;;;17.00;100.00
48563;BME280;34981;49.104;11.396;2023-09-07T01:00:22;95422.75;;;17.00;100.00
48563;BME280;34981;49.104;11.396;2023-09-07T01:02:52;95419.41;;;16.94;100.00
48563;BME280;34981;49.104;11.396;2023-09-07T01:05:21;95418.94;;;16.92;100.00
48563;BME280;34981;49.104;11.396;2023-09-07T01:07:53;95419.09;;;16.87;100.00
48563;BME280;34981;49.104;11.396;2023-09-07T01:10:21;95417.66;;;16.81;100.00
48563;BME280;34981;49.104;11.396;2023-09-07T01:12:49;95422.47;;;16.67;100.00
48563;BME280;34981;49.104;11.396;2023-09-07T01:15:16;95430.94;;;16.65;100.00
48563;BME280;34981;49.104;11.396;2023-09-07T01:17:44;95428.66;;;16.59;100.00
48563;BME280;34981;49.104;11.396;2023-09-07T01:20:12;95448.00;;;16.49;100.00
48563;BME280;34981;49.104;11.396;2023-09-07T01:22:40;95448.63;;;16.46;100.00
48563;BME280;34981;49.104;11.396;2023-09-07T01:25:07;95448.94;;;16.35;100.00
48563;BME280;34981;49.104;11.396;2023-09-07T01:27:35;95456.59;;;16.33;100.00
48563;BME280;34981;49.104;11.396;2023-09-07T01:30:02;95452.28;;;16.32;100.00
48563;BME280;34981;49.104;11.396;2023-09-07T01:32:30;95451.81;;;16.39;100.00
48563;BME280;34981;49.104;11.396;2023-09-07T01:34:58;95455.94;;;16.36;100.00
48563;BME280;34981;49.104;11.396;2023-09-07T01:37:25;95457.88;;;16.45;100.00
48563;BME280;34981;49.104;11.396;2023-09-07T01:39:53;95451.66;;;16.27;100.00
48563;BME280;34981;49.104;11.396;2023-09-07T01:42:20;95464.56;;;16.21;100.00
48563;BME280;34981;49.104;11.396;2023-09-07T01:44:48;95465.34;;;16.30;100.00
48563;BME280;34981;49.104;11.396;2023-09-07T01:47:16;95462.81;;;16.34;100.00
48563;BME280;34981;49.104;11.396;2023-09-07T01:49:43;95465.22;;;16.35;100.00
48563;BME280;34981;49.104;11.396;2023-09-07T01:52:10;95460.41;;;16.32;100.00
48563;BME280;34981;49.104;11.396;2023-09-07T01:54:37;95453.25;;;16.28;100.00
48563;BME280;34981;49.104;11.396;2023-09-07T01:57:04;95453.06;;;16.24;100.00
48563;BME280;34981;49.104;11.396;2023-09-07T01:59:31;95444.94;;;16.24;100.00
48563;BME280;34981;49.104;11.396;2023-09-07T02:01:59;95446.84;;;16.07;100.00
48563;BME280;34981;49.104;11.396;2023-09-07T02:04:26;95457.34;;;16.00;100.00
48563;BME280;34981;49.104;11.396;2023-09-07T02:06:53;95459.09;;;16.04;100.00
48563;BME280;34981;49.104;11.396;2023-09-07T02:09:20;95456.22;;;16.09;100.00
48563;BME280;34981;49.104;11.396;2023-09-07T02:11:47;95450.00;;;16.09;100.00
48563;BME280;34981;49.104;11.396;2023-09-07T02:14:15;95448.59;;;16.11;100.00
48563;BME280;34981;49.104;11.396;2023-09-07T02:16:42;95450.69;;;16.14;100.00
48563;BME280;34981;49.104;11.396;2023-09-07T02:19:09;95467.53;;;16.03;100.00
48563;BME280;34981;49.104;11.396;2023-09-07T02:21:36;95473.31;;;16.10;100.00
48563;BME280;34981;49.104;11.396;2023-09-07T02:24:03;95477.78;;;16.14;100.00
48563;BME280;34981;49.104;11.396;2023-09-07T02:26:31;95482.69;;;16.04;100.00
48563;BME280;34981;49.104;11.396;2023-09-07T02:28:58;95485.44;;;16.12;100.00
48563;BME280;34981;49.104;11.396;2023-09-07T02:31:25;95487.16;;;16.08;100.00
48563;BME280;34981;49.104;11.396;2023-09-07T02:33:53;95492.59;;;16.08;100.00
48563;BME280;34981;49.104;11.396;2023-09-07T02:36:20;95479.81;;;16.00;100.00
48563;BME280;34981;49.104;11.396;2023-09-07T02:38:47;95489.84;;;15.91;100.00
48563;BME280;34981;49.104;11.396;2023-09-07T02:41:14;95487.78;;;15.96;100.00
48563;BME280;34981;49.104;11.396;2023-09-07T02:43:41;95492.75;;;16.03;100.00
48563;BME280;34981;49.104;11.396;2023-09-07T02:46:09;95477.44;;;15.99;100.00
48563;BME280;34981;49.104;11.396;2023-09-07T02:48:36;95487.81;;;16.05;100.00
48563;BME280;34981;49.104;11.396;2023-09-07T02:51:03;95490.66;;;16.00;100.00
48563;BME280;34981;49.104;11.396;2023-09-07T02:53:30;95479.81;;;15.91;100.00
48563;BME280;34981;49.104;11.396;2023-09-07T02:55:57;95483.63;;;15.90;100.00
48563;BME280;34981;49.104;11.396;2023-09-07T02:58:25;95479.47;;;15.93;100.00
48563;BME280;34981;49.104;11.396;2023-09-07T03:00:53;95475.31;;;15.87;100.00
48563;BME280;34981;49.104;11.396;2023-09-07T03:03:24;95478.34;;;15.85;100.00
48563;BME280;34981;49.104;11.396;2023-09-07T03:05:52;95488.63;;;15.66;100.00
48563;BME280;34981;49.104;11.396;2023-09-07T03:08:19;95500.78;;;15.69;100.00
48563;BME280;34981;49.104;11.396;2023-09-07T03:10:47;95513.56;;;15.77;100.00
48563;BME280;34981;49.104;11.396;2023-09-07T03:13:14;95507.78;;;15.70;100.00
48563;BME280;34981;49.104;11.396;2023-09-07T03:15:42;95515.28;;;15.73;100.00
48563;BME280;34981;49.104;11.396;2023-09-07T03:18:12;95512.88;;;15.71;100.00
48563;BME280;34981;49.104;11.396;2023-09-07T03:20:40;95521.00;;;15.63;100.00
48563;BME280;34981;49.104;11.396;2023-09-07T03:23:07;95514.78;;;15.71;100.00
48563;BME280;34981;49.104;11.396;2023-09-07T03:25:35;95521.81;;;15.72;100.00
48563;BME280;34981;49.104;11.396;2023-09-07T03:28:02;95508.75;;;15.74;100.00
48563;BME280;34981;49.104;11.396;2023-09-07T03:30:32;95506.66;;;15.71;100.00
48563;BME280;34981;49.104;11.396;2023-09-07T03:32:59;95498.69;;;15.66;100.00
48563;BME280;34981;49.104;11.396;2023-09-07T03:35:27;95501.22;;;15.62;100.00
48563;BME280;34981;49.104;11.396;2023-09-07T03:37:54;95500.13;;;15.63;100.00
48563;BME280;34981;49.104;11.396;2023-09-07T03:40:21;95498.06;;;15.69;100.00
48563;BME280;34981;49.104;11.396;2023-09-07T03:42:49;95484.31;;;15.65;100.00
48563;BME280;34981;49.104;11.396;2023-09-07T03:45:16;95485.13;;;15.66;100.00
48563;BME280;34981;49.104;11.396;2023-09-07T03:47:44;95489.44;;;15.67;100.00
48563;BME280;34981;49.104;11.396;2023-09-07T03:50:14;95484.78;;;15.58;100.00
48563;BME280;34981;49.104;11.396;2023-09-07T03:52:41;95493.94;;;15.49;100.00
48563;BME280;34981;49.104;11.396;2023-09-07T03:55:08;95493.13;;;15.40;100.00
48563;BME280;34981;49.104;11.396;2023-09-07T03:57:37;95502.03;;;15.40;100.00
48563;BME280;34981;49.104;11.396;2023-09-07T04:00:06;95513.91;;;15.53;100.00
48563;BME280;34981;49.104;11.396;2023-09-07T04:02:47;95502.63;;;15.60;100.00
48563;BME280;34981;49.104;11.396;2023-09-07T04:05:14;95490.84;;;15.55;100.00
48563;BME280;34981;49.104;11.396;2023-09-07T04:07:42;95482.38;;;15.57;100.00
48563;BME280;34981;49.104;11.396;2023-09-07T04:10:09;95483.66;;;15.60;100.00
48563;BME280;34981;49.104;11.396;2023-09-07T04:12:36;95480.59;;;15.52;100.00
48563;BME280;34981;49.104;11.396;2023-09-07T04:15:04;95482.13;;;15.45;100.00
48563;BME280;34981;49.104;11.396;2023-09-07T04:17:31;95481.66;;;15.43;100.00
48563;BME280;34981;49.104;11.396;2023-09-07T04:20:07;95470.75;;;15.34;100.00
48563;BME280;34981;49.104;11.396;2023-09-07T04:22:35;95473.06;;;15.41;100.00
48563;BME280;34981;49.104;11.396;2023-09-07T04:25:03;95477.66;;;15.40;100.00
48563;BME280;34981;49.104;11.396;2023-09-07T04:27:30;95473.06;;;15.41;100.00
48563;BME280;34981;49.104;11.396;2023-09-07T04:29:59;95480.84;;;15.42;100.00
48563;BME280;34981;49.104;11.396;2023-09-07T04:32:26;95477.03;;;15.43;100.00
48563;BME280;34981;49.104;11.396;2023-09-07T04:34:55;95482.19;;;15.23;100.00
48563;BME280;34981;49.104;11.396;2023-09-07T04:37:23;95493.56;;;15.33;100.00
48563;BME280;34981;49.104;11.396;2023-09-07T04:39:51;95495.78;;;15.31;100.00
48563;BME280;34981;49.104;11.396;2023-09-07T04:42:19;95501.19;;;15.31;100.00
48563;BME280;34981;49.104;11.396;2023-09-07T04:44:47;95501.78;;;15.28;100.00
48563;BME280;34981;49.104;11.396;2023-09-07T04:47:14;95490.97;;;15.28;100.00
48563;BME280;34981;49.104;11.396;2023-09-07T04:49:48;95490.97;;;15.28;100.00
48563;BME280;34981;49.104;11.396;2023-09-07T04:52:19;95495.72;;;15.23;100.00
48563;BME280;34981;49.104;11.396;2023-09-07T04:54:46;95503.03;;;15.22;100.00
48563;BME280;34981;49.104;11.396;2023-09-07T04:57:17;95502.13;;;15.27;100.00
48563;BME280;34981;49.104;11.396;2023-09-07T04:59:48;95500.53;;;15.26;100.00
48563;BME280;34981;49.104;11.396;2023-09-07T05:02:15;95500.69;;;15.29;100.00
48563;BME280;34981;49.104;11.396;2023-09-07T05:04:44;95505.81;;;15.31;100.00
48563;BME280;34981;49.104;11.396;2023-09-07T05:07:11;95514.09;;;15.34;100.00
48563;BME280;34981;49.104;11.396;2023-09-07T05:09:39;95506.78;;;15.35;100.00
48563;BME280;34981;49.104;11.396;2023-09-07T05:12:07;95507.31;;;15.45;100.00
48563;BME280;34981;49.104;11.396;2023-09-07T05:14:34;95501.69;;;15.55;100.00
48563;BME280;34981;49.104;11.396;2023-09-07T05:17:01;95497.22;;;15.60;100.00
48563;BME280;34981;49.104;11.396;2023-09-07T05:19:28;95485.31;;;15.69;100.00
48563;BME280;34981;49.104;11.396;2023-09-07T05:21:56;95484.38;;;15.74;100.00
48563;BME280;34981;49.104;11.396;2023-09-07T05:24:23;95492.03;;;15.80;100.00
48563;BME280;34981;49.104;11.396;2023-09-07T05:26:51;95493.53;;;15.95;100.00
48563;BME280;34981;49.104;11.396;2023-09-07T05:29:18;95491.56;;;15.87;100.00
48563;BME280;34981;49.104;11.396;2023-09-07T05:31:47;95503.41;;;15.91;100.00
48563;BME280;34981;49.104;11.396;2023-09-07T05:34:14;95504.25;;;16.09;100.00
48563;BME280;34981;49.104;11.396;2023-09-07T05:36:42;95511.63;;;16.25;100.00
48563;BME280;34981;49.104;11.396;2023-09-07T05:39:09;95513.38;;;16.30;100.00
48563;BME280;34981;49.104;11.396;2023-09-07T05:41:36;95507.03;;;16.52;100.00
48563;BME280;34981;49.104;11.396;2023-09-07T05:44:04;95506.88;;;16.40;100.00
48563;BME280;34981;49.104;11.396;2023-09-07T05:46:31;95503.50;;;16.51;100.00
48563;BME280;34981;49.104;11.396;2023-09-07T05:48:58;95509.81;;;16.78;100.00
48563;BME280;34981;49.104;11.396;2023-09-07T05:51:25;95516.00;;;17.12;100.00
48563;BME280;34981;49.104;11.396;2023-09-07T05:53:54;95506.06;;;17.34;100.00
48563;BME280;34981;49.104;11.396;2023-09-07T05:56:22;95498.88;;;17.38;100.00
48563;BME280;34981;49.104;11.396;2023-09-07T05:58:49;95501.44;;;17.26;100.00
48563;BME280;34981;49.104;11.396;2023-09-07T06:01:16;95506.06;;;17.34;100.00
48563;BME280;34981;49.104;11.396;2023-09-07T06:03:44;95508.25;;;17.58;100.00
48563;BME280;34981;49.104;11.396;2023-09-07T06:06:11;95514.75;;;17.82;100.00
48563;BME280;34981;49.104;11.396;2023-09-07T06:08:38;95515.44;;;18.09;100.00
48563;BME280;34981;49.104;11.396;2023-09-07T06:11:05;95509.22;;;18.29;100.00
48563;BME280;34981;49.104;11.396;2023-09-07T06:13:33;95494.94;;;18.11;100.00
48563;BME280;34981;49.104;11.396;2023-09-07T06:16:00;95484.16;;;18.23;100.00
48563;BME280;34981;49.104;11.396;2023-09-07T06:18:29;95470.81;;;18.60;100.00
48563;BME280;34981;49.104;11.396;2023-09-07T06:20:57;95465.84;;;18.95;100.00
48563;BME280;34981;49.104;11.396;2023-09-07T06:23:24;95460.50;;;19.19;100.00
48563;BME280;34981;49.104;11.396;2023-09-07T06:25:52;95442.97;;;18.75;100.00
48563;BME280;34981;49.104;11.396;2023-09-07T06:28:19;95438.88;;;19.02;100.00
48563;BME280;34981;49.104;11.396;2023-09-07T06:30:46;95427.97;;;18.69;100.00
48563;BME280;34981;49.104;11.396;2023-09-07T06:33:15;95423.59;;;18.77;100.00
48563;BME280;34981;49.104;11.396;2023-09-07T06:35:42;95421.53;;;19.07;100.00
48563;BME280;34981;49.104;11.396;2023-09-07T06:38:09;95415.81;;;18.66;100.00
48563;BME280;34981;49.104;11.396;2023-09-07T06:40:39;95425.31;;;19.26;100.00
48563;BME280;34981;49.104;11.396;2023-09-07T06:43:06;95438.38;;;19.78;100.00
48563;BME280;34981;49.104;11.396;2023-09-07T06:45:34;95430.63;;;19.80;100.00
48563;BME280;34981;49.104;11.396;2023-09-07T06:48:03;95438.25;;;19.99;100.00
48563;BME280;34981;49.104;11.396;2023-09-07T06:50:30;95427.69;;;19.97;100.00
48563;BME280;34981;49.104;11.396;2023-09-07T06:52:57;95428.13;;;19.75;100.00
48563;BME280;34981;49.104;11.396;2023-09-07T06:55:24;95428.16;;;19.99;100.00
48563;BME280;34981;49.104;11.396;2023-09-07T06:57:53;95424.59;;;20.35;100.00
48563;BME280;34981;49.104;11.396;2023-09-07T07:00:21;95429.50;;;20.05;100.00
48563;BME280;34981;49.104;11.396;2023-09-07T07:02:48;95426.38;;;20.55;100.00
48563;BME280;34981;49.104;11.396;2023-09-07T07:05:15;95424.25;;;20.77;100.00
48563;BME280;34981;49.104;11.396;2023-09-07T07:07:43;95422.59;;;21.16;100.00
48563;BME280;34981;49.104;11.396;2023-09-07T07:10:10;95425.84;;;20.78;100.00
48563;BME280;34981;49.104;11.396;2023-09-07T07:12:39;95421.72;;;20.32;100.00
48563;BME280;34981;49.104;11.396;2023-09-07T07:15:07;95427.53;;;20.82;100.00
48563;BME280;34981;49.104;11.396;2023-09-07T07:17:35;95428.31;;;21.70;100.00
48563;BME280;34981;49.104;11.396;2023-09-07T07:20:03;95430.94;;;21.35;100.00
48563;BME280;34981;49.104;11.396;2023-09-07T07:22:30;95434.06;;;22.12;100.00
48563;BME280;34981;49.104;11.396;2023-09-07T07:25:02;95434.03;;;21.49;100.00
48563;BME280;34981;49.104;11.396;2023-09-07T07:27:32;95430.53;;;21.64;100.00
48563;BME280;34981;49.104;11.396;2023-09-07T07:29:59;95434.25;;;21.72;100.00
48563;BME280;34981;49.104;11.396;2023-09-07T07:32:27;95445.44;;;21.51;100.00
48563;BME280;34981;49.104;11.396;2023-09-07T07:34:55;95440.22;;;21.93;100.00
48563;BME280;34981;49.104;11.396;2023-09-07T07:37:23;95440.88;;;22.18;100.00
48563;BME280;34981;49.104;11.396;2023-09-07T07:39:51;95442.72;;;21.67;100.00
48563;BME280;34981;49.104;11.396;2023-09-07T07:42:18;95437.44;;;21.90;100.00
48563;BME280;34981;49.104;11.396;2023-09-07T07:44:46;95451.28;;;22.63;100.00
48563;BME280;34981;49.104;11.396;2023-09-07T07:47:13;95456.56;;;23.10;100.00
48563;BME280;34981;49.104;11.396;2023-09-07T07:49:40;95460.81;;;22.19;100.00
48563;BME280;34981;49.104;11.396;2023-09-07T07:52:08;95466.16;;;22.46;100.00
48563;BME280;34981;49.104;11.396;2023-09-07T07:54:35;95466.47;;;22.61;100.00
48563;BME280;34981;49.104;11.396;2023-09-07T07:57:04;95477.44;;;22.10;100.00
48563;BME280;34981;49.104;11.396;2023-09-07T07:59:33;95477.56;;;21.86;100.00
48563;BME280;34981;49.104;11.396;2023-09-07T08:02:00;95472.59;;;22.54;100.00
48563;BME280;34981;49.104;11.396;2023-09-07T08:04:29;95490.34;;;23.34;100.00
48563;BME280;34981;49.104;11.396;2023-09-07T08:06:59;95499.13;;;22.50;100.00
48563;BME280;34981;49.104;11.396;2023-09-07T08:09:31;95490.47;;;23.02;100.00
48563;BME280;34981;49.104;11.396;2023-09-07T08:12:00;95493.22;;;23.02;100.00
48563;BME280;34981;49.104;11.396;2023-09-07T08:14:31;95502.72;;;23.47;100.00
48563;BME280;34981;49.104;11.396;2023-09-07T08:16:58;95509.28;;;23.81;100.00
48563;BME280;34981;49.104;11.396;2023-09-07T08:19:26;95515.47;;;23.55;100.00
48563;BME280;34981;49.104;11.396;2023-09-07T08:21:55;95520.94;;;23.36;100.00
48563;BME280;34981;49.104;11.396;2023-09-07T08:24:22;95518.59;;;23.95;100.00
48563;BME280;34981;49.104;11.396;2023-09-07T08:26:49;95545.44;;;24.51;100.00
48563;BME280;34981;49.104;11.396;2023-09-07T08:29:18;95572.78;;;24.21;100.00
48563;BME280;34981;49.104;11.396;2023-09-07T08:31:48;95590.53;;;23.85;100.00
48563;BME280;34981;49.104;11.396;2023-09-07T08:34:17;95626.59;;;23.64;100.00
48563;BME280;34981;49.104;11.396;2023-09-07T08:36:46;95625.09;;;23.86;100.00
48563;BME280;34981;49.104;11.396;2023-09-07T08:39:13;95681.28;;;23.92;100.00
48563;BME280;34981;49.104;11.396;2023-09-07T08:41:40;95691.97;;;24.36;100.00
48563;BME280;34981;49.104;11.396;2023-09-07T08:44:27;95753.81;;;23.72;100.00
48563;BME280;34981;49.104;11.396;2023-09-07T08:46:55;95761.19;;;23.05;100.00
48563;BME280;34981;49.104;11.396;2023-09-07T08:49:23;95731.69;;;23.84;100.00
48563;BME280;34981;49.104;11.396;2023-09-07T08:51:51;95763.78;;;23.80;100.00
48563;BME280;34981;49.104;11.396;2023-09-07T08:54:19;95767.25;;;23.77;100.00
48563;BME280;34981;49.104;11.396;2023-09-07T08:56:46;95773.19;;;23.63;100.00
48563;BME280;34981;49.104;11.396;2023-09-07T08:59:14;95776.06;;;23.51;100.00
48563;BME280;34981;49.104;11.396;2023-09-07T09:01:41;95768.03;;;23.78;100.00
48563;BME280;34981;49.104;11.396;2023-09-07T09:04:09;95789.56;;;24.11;100.00
48563;BME280;34981;49.104;11.396;2023-09-07T09:06:36;95795.38;;;24.25;100.00
48563;BME280;34981;49.104;11.396;2023-09-07T09:09:03;95796.47;;;24.04;100.00
48563;BME280;34981;49.104;11.396;2023-09-07T09:11:33;95821.38;;;24.50;100.00
48563;BME280;34981;49.104;11.396;2023-09-07T09:14:04;95853.72;;;24.37;100.00
48563;BME280;34981;49.104;11.396;2023-09-07T09:16:32;95831.59;;;24.15;100.00
48563;BME280;34981;49.104;11.396;2023-09-07T09:18:59;95816.63;;;23.93;100.00
48563;BME280;34981;49.104;11.396;2023-09-07T09:21:26;95817.34;;;24.63;100.00
48563;BME280;34981;49.104;11.396;2023-09-07T09:23:54;95847.38;;;24.18;100.00
48563;BME280;34981;49.104;11.396;2023-09-07T09:26:24;95845.69;;;24.67;100.00
48563;BME280;34981;49.104;11.396;2023-09-07T09:28:55;95897.50;;;24.65;100.00
48563;BME280;34981;49.104;11.396;2023-09-07T09:31:23;95917.03;;;24.60;100.00
48563;BME280;34981;49.104;11.396;2023-09-07T09:33:51;95927.00;;;24.88;100.00
48563;BME280;34981;49.104;11.396;2023-09-07T09:36:19;95949.28;;;24.63;100.00
48563;BME280;34981;49.104;11.396;2023-09-07T09:38:47;95956.19;;;24.92;100.00
48563;BME280;34981;49.104;11.396;2023-09-07T09:41:16;96003.59;;;24.35;100.00
48563;BME280;34981;49.104;11.396;2023-09-07T09:43:45;96002.53;;;25.09;100.00
48563;BME280;34981;49.104;11.396;2023-09-07T09:46:12;96016.66;;;25.27;100.00
48563;BME280;34981;49.104;11.396;2023-09-07T09:48:41;96031.41;;;24.84;100.00
48563;BME280;34981;49.104;11.396;2023-09-07T09:51:09;96034.09;;;24.96;100.00
48563;BME280;34981;49.104;11.396;2023-09-07T09:53:38;96073.28;;;24.77;100.00
48563;BME280;34981;49.104;11.396;2023-09-07T09:56:07;96058.16;;;24.83;100.00
48563;BME280;34981;49.104;11.396;2023-09-07T09:58:35;96072.09;;;24.75;100.00
48563;BME280;34981;49.104;11.396;2023-09-07T10:01:02;96120.13;;;24.34;100.00
48563;BME280;34981;49.104;11.396;2023-09-07T10:03:33;96150.50;;;24.10;100.00
48563;BME280;34981;49.104;11.396;2023-09-07T10:06:08;96183.66;;;24.17;100.00
48563;BME280;34981;49.104;11.396;2023-09-07T10:08:35;96229.44;;;24.25;100.00
48563;BME280;34981;49.104;11.396;2023-09-07T10:11:09;96213.31;;;24.39;100.00
48563;BME280;34981;49.104;11.396;2023-09-07T10:13:36;96226.34;;;24.42;100.00
48563;BME280;34981;49.104;11.396;2023-09-07T10:16:04;96221.97;;;24.69;100.00
48563;BME280;34981;49.104;11.396;2023-09-07T10:18:37;96234.47;;;24.66;100.00
48563;BME280;34981;49.104;11.396;2023-09-07T10:21:05;96215.41;;;24.89;100.00
48563;BME280;34981;49.104;11.396;2023-09-07T10:26:09;96235.69;;;24.53;100.00
48563;BME280;34981;49.104;11.396;2023-09-07T10:28:37;96232.09;;;24.37;100.00
48563;BME280;34981;49.104;11.396;2023-09-07T10:31:12;96215.53;;;24.49;100.00
48563;BME280;34981;49.104;11.396;2023-09-07T10:33:40;96206.47;;;24.76;100.00
48563;BME280;34981;49.104;11.396;2023-09-07T10:36:07;96207.72;;;24.95;100.00
48563;BME280;34981;49.104;11.396;2023-09-07T10:38:35;96201.31;;;25.06;100.00
48563;BME280;34981;49.104;11.396;2023-09-07T10:41:03;96197.47;;;24.79;100.00
48563;BME280;34981;49.104;11.396;2023-09-07T10:43:32;96208.56;;;24.67;100.00
48563;BME280;34981;49.104;11.396;2023-09-07T10:46:00;96229.06;;;24.86;100.00
48563;BME280;34981;49.104;11.396;2023-09-07T10:48:29;96262.84;;;24.70;100.00
48563;BME280;34981;49.104;11.396;2023-09-07T10:50:56;96272.75;;;24.59;100.00
48563;BME280;34981;49.104;11.396;2023-09-07T10:53:27;96279.00;;;24.88;100.00
48563;BME280;34981;49.104;11.396;2023-09-07T10:55:56;96296.75;;;24.47;100.00
48563;BME280;34981;49.104;11.396;2023-09-07T10:58:27;96311.72;;;24.49;100.00
48563;BME280;34981;49.104;11.396;2023-09-07T11:00:57;96306.63;;;24.63;100.00
48563;BME280;34981;49.104;11.396;2023-09-07T11:03:25;96311.97;;;24.72;100.00
48563;BME280;34981;49.104;11.396;2023-09-07T11:05:59;96331.81;;;24.65;100.00
48563;BME280;34981;49.104;11.396;2023-09-07T11:08:27;96321.44;;;24.59;100.00
48563;BME280;34981;49.104;11.396;2023-09-07T11:10:56;96316.84;;;24.91;100.00
48563;BME280;34981;49.104;11.396;2023-09-07T11:13:23;96327.59;;;24.96;100.00
48563;BME280;34981;49.104;11.396;2023-09-07T11:15:53;96343.94;;;25.04;100.00
48563;BME280;34981;49.104;11.396;2023-09-07T11:18:21;96339.41;;;25.12;100.00
48563;BME280;34981;49.104;11.396;2023-09-07T11:20:51;96340.78;;;25.06;100.00
48563;BME280;34981;49.104;11.396;2023-09-07T11:23:18;96337.00;;;25.10;100.00
48563;BME280;34981;49.104;11.396;2023-09-07T11:25:49;96342.84;;;25.09;100.00
48563;BME280;34981;49.104;11.396;2023-09-07T11:28:19;96350.22;;;25.05;100.00
48563;BME280;34981;49.104;11.396;2023-09-07T11:30:53;96361.72;;;24.95;100.00
48563;BME280;34981;49.104;11.396;2023-09-07T11:33:23;96374.13;;;24.89;100.00
48563;BME280;34981;49.104;11.396;2023-09-07T11:35:52;96364.41;;;24.91;100.00
48563;BME280;34981;49.104;11.396;2023-09-07T11:38:21;96363.81;;;24.86;100.00
48563;BME280;34981;49.104;11.396;2023-09-07T11:40:49;96365.81;;;25.01;100.00
48563;BME280;34981;49.104;11.396;2023-09-07T11:43:16;96366.53;;;24.98;100.00
48563;BME280;34981;49.104;11.396;2023-09-07T11:45:46;96361.03;;;24.98;100.00
48563;BME280;34981;49.104;11.396;2023-09-07T11:48:13;96347.03;;;25.18;100.00
48563;BME280;34981;49.104;11.396;2023-09-07T11:50:41;96350.84;;;25.30;100.00
48563;BME280;34981;49.104;11.396;2023-09-07T11:53:08;96336.28;;;25.13;100.00
48563;BME280;34981;49.104;11.396;2023-09-07T11:55:35;96347.06;;;25.34;100.00
48563;BME280;34981;49.104;11.396;2023-09-07T11:58:03;96334.88;;;25.35;100.00
48563;BME280;34981;49.104;11.396;2023-09-07T12:00:30;96334.25;;;25.10;100.00
48563;BME280;34981;49.104;11.396;2023-09-07T12:02:59;96336.06;;;25.34;100.00
48563;BME280;34981;49.104;11.396;2023-09-07T12:05:26;96327.88;;;25.53;100.00
48563;BME280;34981;49.104;11.396;2023-09-07T12:07:53;96333.66;;;25.64;100.00
48563;BME280;34981;49.104;11.396;2023-09-07T12:10:21;96329.66;;;25.62;100.00
48563;BME280;34981;49.104;11.396;2023-09-07T12:12:48;96328.59;;;25.66;100.00
48563;BME280;34981;49.104;11.396;2023-09-07T12:15:16;96328.50;;;25.63;100.00
48563;BME280;34981;49.104;11.396;2023-09-07T12:17:43;96333.28;;;25.34;100.00
48563;BME280;34981;49.104;11.396;2023-09-07T12:20:10;96338.00;;;25.65;100.00
48563;BME280;34981;49.104;11.396;2023-09-07T12:22:39;96327.50;;;25.39;100.00
48563;BME280;34981;49.104;11.396;2023-09-07T12:25:07;96326.53;;;25.47;100.00
48563;BME280;34981;49.104;11.396;2023-09-07T12:27:47;96332.91;;;25.51;100.00
48563;BME280;34981;49.104;11.396;2023-09-07T12:30:18;96325.75;;;25.63;100.00
48563;BME280;34981;49.104;11.396;2023-09-07T12:32:47;96331.59;;;25.77;100.00
48563;BME280;34981;49.104;11.396;2023-09-07T12:35:15;96311.41;;;25.73;100.00
48563;BME280;34981;49.104;11.396;2023-09-07T12:37:43;96303.28;;;25.61;100.00
48563;BME280;34981;49.104;11.396;2023-09-07T12:40:10;96299.72;;;25.29;100.00
48563;BME280;34981;49.104;11.396;2023-09-07T12:42:43;96296.97;;;25.60;100.00
48563;BME280;34981;49.104;11.396;2023-09-07T12:45:11;96294.38;;;25.67;100.00
48563;BME280;34981;49.104;11.396;2023-09-07T12:47:39;96278.50;;;25.61;100.00